Barney Turecamo — WDC6808 — position and weather

sailwx.info

Track history (hours):
 
Tides and Currents Weather Stations Pressure Air Temp Water Temp Dewpoint Dewpoint Depression Visibility Wind Speed Wind Dir Waves Ship Positions

Barney Turecamo

Owner: Moran Towing Corporation, New Canaan, CT. More information available from US FCC via Universal Licensing System and Coast Guard Vessel Documentation Center.

Last reported at 2017-Oct-17 13:29 UTC. Time now 2017-Oct-17 13:54 UTC.
Position N 40°39' W 074°07'.

Length 156 m; draft 7 m.

Type: . MMSI: 367061610.

Date/timePositionNaut miles runAvg speedWind from/ knotsBaromVisibWave heightAir tempDewpointWater temp
2017-Oct-17 13:29N 40°39' W 074°07'0 0.0
2017-Oct-17 12:59N 40°39' W 074°07'0 0.0
2017-Oct-17 12:29N 40°39' W 074°07'0 0.0
2017-Oct-17 11:59N 40°39' W 074°07'0 0.0
2017-Oct-17 11:29N 40°39' W 074°07'0 0.0
2017-Oct-17 10:59N 40°39' W 074°07'0 0.0
2017-Oct-17 10:26N 40°39' W 074°07'0 0.0
2017-Oct-17 09:59N 40°39' W 074°07'0 0.0
2017-Oct-17 09:29N 40°39' W 074°07'0 0.0
2017-Oct-17 08:59N 40°39' W 074°07'0 0.0
2017-Oct-17 08:29N 40°39' W 074°07'0 0.0
2017-Oct-17 07:56N 40°39' W 074°07'0 0.0
2017-Oct-17 07:29N 40°39' W 074°07'0 0.0
2017-Oct-17 06:59N 40°39' W 074°07'0 0.0
2017-Oct-17 06:30N 40°39' W 074°07'0 0.2
2017-Oct-17 06:01N 40°39' W 074°07'0 0.1
2017-Oct-17 05:30N 40°39' W 074°07'0 0.0
2017-Oct-17 05:00N 40°39' W 074°07'1 2.5
2017-Oct-17 04:30N 40°39' W 074°05'0 0.2
2017-Oct-17 04:00N 40°39' W 074°05'0 0.0
2017-Oct-17 03:30N 40°39' W 074°05'0 0.0
2017-Oct-17 02:59N 40°39' W 074°05'0 0.0
2017-Oct-17 02:26N 40°39' W 074°05'0 0.0
2017-Oct-17 01:59N 40°39' W 074°05'0 0.0
2017-Oct-17 01:29N 40°39' W 074°05'0 0.0
2017-Oct-17 00:59N 40°39' W 074°05'0 0.0
2017-Oct-17 00:29N 40°39' W 074°05'0 0.0
2017-Oct-16 23:59N 40°39' W 074°05'0 0.0
2017-Oct-16 23:29N 40°39' W 074°05'0 0.0
2017-Oct-16 22:59N 40°39' W 074°05'0 0.0
2017-Oct-16 22:29N 40°39' W 074°05'0 0.0
2017-Oct-16 21:59N 40°39' W 074°05'0 0.0
2017-Oct-16 21:26N 40°39' W 074°05'0 0.0
2017-Oct-16 20:59N 40°39' W 074°05'0 0.0
2017-Oct-16 20:31N 40°39' W 074°05'2 4.3
2017-Oct-16 20:00N 40°38' W 074°08'0 0.0
2017-Oct-16 19:28N 40°38' W 074°08'0 0.0
2017-Oct-16 18:58N 40°38' W 074°08'0 0.0
2017-Oct-16 18:28N 40°38' W 074°08'0 0.0
2017-Oct-16 17:58N 40°38' W 074°08'0 0.0
2017-Oct-16 17:19N 40°38' W 074°08'0 0.0
2017-Oct-16 16:58N 40°38' W 074°08'0 0.0
2017-Oct-16 16:28N 40°38' W 074°08'2 4.7
2017-Oct-16 16:00N 40°39' W 074°05'0 0.0
2017-Oct-16 15:27N 40°39' W 074°05'0 0.0
2017-Oct-16 15:00N 40°39' W 074°05'0 0.0
2017-Oct-16 14:00N 40°39' W 074°05'0 0.0
2017-Oct-16 13:30N 40°39' W 074°05'0 0.0
2017-Oct-16 13:00N 40°39' W 074°05'0 0.0
2017-Oct-16 12:30N 40°39' W 074°05'0 0.0
2017-Oct-16 12:00N 40°39' W 074°05'0 0.0
2017-Oct-16 11:30N 40°39' W 074°05'0 0.0
2017-Oct-16 11:00N 40°39' W 074°05'0 0.0
2017-Oct-16 10:27N 40°39' W 074°05'0 0.0
2017-Oct-16 10:00N 40°39' W 074°05'0 0.0
2017-Oct-16 09:30N 40°39' W 074°05'0 0.0
2017-Oct-16 09:00N 40°39' W 074°05'0 0.0
2017-Oct-16 08:30N 40°39' W 074°05'0 0.0
2017-Oct-16 08:00N 40°39' W 074°05'0 0.0
2017-Oct-16 07:30N 40°39' W 074°05'0 0.0
2017-Oct-16 07:00N 40°39' W 074°05'0 0.0
2017-Oct-16 06:30N 40°39' W 074°05'0 0.0
2017-Oct-16 06:00N 40°39' W 074°05'0 0.0
2017-Oct-16 05:30N 40°39' W 074°05'0 0.0
2017-Oct-16 05:00N 40°39' W 074°05'0 0.0
2017-Oct-16 04:30N 40°39' W 074°05'0 0.0
2017-Oct-16 04:00N 40°39' W 074°05'2 3.3
2017-Oct-16 03:31N 40°39' W 074°03'0 0.1
2017-Oct-16 02:59N 40°39' W 074°03'0 0.0
2017-Oct-16 02:30N 40°39' W 074°03'1 2.4
2017-Oct-16 02:00N 40°39' W 074°05'5 9.8
2017-Oct-16 01:30N 40°39' W 074°11'1 2.4
2017-Oct-16 00:59N 40°38' W 074°12'0 0.0
2017-Oct-16 00:29N 40°38' W 074°12'0 0.0
2017-Oct-15 23:59N 40°38' W 074°12'0 0.0
2017-Oct-15 23:26N 40°38' W 074°12'0 0.0
2017-Oct-15 22:59N 40°38' W 074°12'0 0.0
2017-Oct-15 22:26N 40°38' W 074°12'0 0.0
2017-Oct-15 21:59N 40°38' W 074°12'0 0.0
2017-Oct-15 21:26N 40°38' W 074°12'0 0.0
2017-Oct-15 20:59N 40°38' W 074°12'0 0.0
2017-Oct-15 20:29N 40°38' W 074°12'0 0.0
2017-Oct-15 19:56N 40°38' W 074°12'0 0.0
2017-Oct-15 19:29N 40°38' W 074°12'0 0.0
2017-Oct-15 18:56N 40°38' W 074°12'0 0.0
2017-Oct-15 18:29N 40°38' W 074°12'0 0.0
2017-Oct-15 17:59N 40°38' W 074°12'0 0.0
2017-Oct-15 17:29N 40°38' W 074°12'0 0.0
2017-Oct-15 16:56N 40°38' W 074°12'0 0.0
2017-Oct-15 16:29N 40°38' W 074°12'0 0.0
2017-Oct-15 15:56N 40°38' W 074°12'0 0.0
2017-Oct-15 15:26N 40°38' W 074°12'0 0.0
2017-Oct-15 14:59N 40°38' W 074°12'0 0.0
2017-Oct-15 13:59N 40°38' W 074°12'0 0.0
2017-Oct-15 13:20N 40°38' W 074°12'0 0.0
2017-Oct-15 12:53N 40°38' W 074°12'0 0.0
2017-Oct-15 12:29N 40°38' W 074°12'0 0.0
2017-Oct-15 11:59N 40°38' W 074°12'0 0.0
2017-Oct-15 11:29N 40°38' W 074°12'0 0.0
2017-Oct-15 10:59N 40°38' W 074°12'0 0.0
2017-Oct-15 10:29N 40°38' W 074°12'0 0.0
2017-Oct-15 09:56N 40°38' W 074°12'0 0.0
2017-Oct-15 09:26N 40°38' W 074°12'0 0.0
2017-Oct-15 08:56N 40°38' W 074°12'0 0.0
2017-Oct-15 08:29N 40°38' W 074°12'0 0.0
2017-Oct-15 07:59N 40°38' W 074°12'0 0.0
2017-Oct-15 07:29N 40°38' W 074°12'0 0.0
2017-Oct-15 06:59N 40°38' W 074°12'0 0.0
2017-Oct-15 06:29N 40°38' W 074°12'0 0.0
2017-Oct-15 05:59N 40°38' W 074°12'0 0.0
2017-Oct-15 05:29N 40°38' W 074°12'0 0.0
2017-Oct-15 04:56N 40°38' W 074°12'0 0.0
2017-Oct-15 04:29N 40°38' W 074°12'0 0.0
2017-Oct-15 03:59N 40°38' W 074°12'0 0.0
2017-Oct-15 03:29N 40°38' W 074°12'0 0.0
2017-Oct-15 02:56N 40°38' W 074°12'0 0.0
2017-Oct-15 02:26N 40°38' W 074°12'0 0.0
2017-Oct-15 01:50N 40°38' W 074°12'0 0.0
2017-Oct-15 01:29N 40°38' W 074°12'0 0.0
2017-Oct-15 00:59N 40°38' W 074°12'0 0.0
2017-Oct-15 00:29N 40°38' W 074°12'0 0.0
2017-Oct-14 23:59N 40°38' W 074°12'0 0.0
2017-Oct-14 23:26N 40°38' W 074°12'0 0.0
2017-Oct-14 22:59N 40°38' W 074°12'0 0.0
2017-Oct-14 22:29N 40°38' W 074°12'0 0.0
2017-Oct-14 21:56N 40°38' W 074°12'0 0.0
2017-Oct-14 21:29N 40°38' W 074°12'0 0.0
2017-Oct-14 20:53N 40°38' W 074°12'0 0.0
2017-Oct-14 20:29N 40°38' W 074°12'0 0.0
2017-Oct-14 19:59N 40°38' W 074°12'0 0.0
2017-Oct-14 19:29N 40°38' W 074°12'0 0.0
2017-Oct-14 18:59N 40°38' W 074°12'0 0.0
2017-Oct-14 18:29N 40°38' W 074°12'0 0.0
2017-Oct-14 17:59N 40°38' W 074°12'0 0.0
2017-Oct-14 17:29N 40°38' W 074°12'0 0.0
2017-Oct-14 16:56N 40°38' W 074°12'0 0.0
2017-Oct-14 16:29N 40°38' W 074°12'0 0.0
2017-Oct-14 15:59N 40°38' W 074°12'0 0.0
2017-Oct-14 15:29N 40°38' W 074°12'0 0.0
2017-Oct-14 14:59N 40°38' W 074°12'0 0.0
2017-Oct-14 14:29N 40°38' W 074°12'0 0.0
2017-Oct-14 13:59N 40°38' W 074°12'0 0.0
2017-Oct-14 13:29N 40°38' W 074°12'0 0.0
2017-Oct-14 12:56N 40°38' W 074°12'1 1.5
2017-Oct-14 12:29N 40°38' W 074°12'4 7.9
2017-Oct-14 12:00N 40°39' W 074°07'3 5.2
2017-Oct-14 11:28N 40°39' W 074°03'0 0.0
2017-Oct-14 10:58N 40°39' W 074°03'0 0.3
2017-Oct-14 10:28N 40°39' W 074°03'0 0.1
2017-Oct-14 09:58N 40°39' W 074°03'0 0.0
2017-Oct-14 09:28N 40°39' W 074°03'0 0.0
2017-Oct-14 08:58N 40°39' W 074°03'0 0.0
2017-Oct-14 08:28N 40°39' W 074°03'0 0.0
2017-Oct-14 07:58N 40°39' W 074°03'0 0.0
2017-Oct-14 07:28N 40°39' W 074°03'0 0.0
2017-Oct-14 06:58N 40°39' W 074°03'0 0.1
2017-Oct-14 06:28N 40°39' W 074°03'0 0.2
2017-Oct-14 05:58N 40°39' W 074°03'0 0.2
2017-Oct-14 05:28N 40°39' W 074°03'0 0.3
2017-Oct-14 04:55N 40°39' W 074°03'0 0.9
2017-Oct-14 04:30N 40°40' W 074°03'3 6.1
2017-Oct-14 04:00N 40°42' W 074°00'4 7.1
2017-Oct-14 03:30N 40°45' W 073°58'4 7.1
2017-Oct-14 02:59N 40°48' W 073°55'2 4.6
2017-Oct-14 02:29N 40°48' W 073°52'4 7.5
2017-Oct-14 01:59N 40°49' W 073°47'53 2.4
2017-Oct-13 04:32N 41°00' W 072°39'0 0.0
2017-Oct-13 04:12N 41°00' W 072°39'0 0.1
2017-Oct-13 03:57N 40°60' W 072°39'62 1.2
2017-Oct-11 00:00N 40°43' W 073°58'4 7.9
2017-Oct-10 23:30N 40°41' W 074°02'4 7.3
2017-Oct-10 23:00N 40°39' W 074°06'0 0.7
2017-Oct-10 22:27N 40°39' W 074°07'0 0.0
2017-Oct-10 22:00N 40°39' W 074°07'0 0.0
2017-Oct-10 21:30N 40°39' W 074°07'0 0.0
2017-Oct-10 21:00N 40°39' W 074°07'0 0.0
2017-Oct-10 20:27N 40°39' W 074°07'0 0.0
2017-Oct-10 20:00N 40°39' W 074°07'0 0.0
2017-Oct-10 19:30N 40°39' W 074°07'0 0.0
2017-Oct-10 19:00N 40°39' W 074°07'0 0.0
2017-Oct-10 18:30N 40°39' W 074°07'0 0.0
2017-Oct-10 18:00N 40°39' W 074°07'0 0.0
2017-Oct-10 17:30N 40°39' W 074°07'0 0.0
2017-Oct-10 17:00N 40°39' W 074°07'0 0.0
2017-Oct-10 16:30N 40°39' W 074°07'0 0.0
2017-Oct-10 16:00N 40°39' W 074°07'0 0.0
2017-Oct-10 15:30N 40°39' W 074°07'0 0.0
2017-Oct-10 14:57N 40°39' W 074°07'0 0.0
2017-Oct-10 14:00N 40°39' W 074°07'0 0.0
2017-Oct-10 13:30N 40°39' W 074°07'0 0.0
2017-Oct-10 13:00N 40°39' W 074°07'0 0.0
2017-Oct-10 12:30N 40°39' W 074°07'0 0.0
2017-Oct-10 12:00N 40°39' W 074°07'0 0.0
2017-Oct-10 11:30N 40°39' W 074°07'0 0.0
2017-Oct-10 10:57N 40°39' W 074°07'0 0.0
2017-Oct-10 10:30N 40°39' W 074°07'0 0.0
2017-Oct-10 09:57N 40°39' W 074°07'0 0.0
2017-Oct-10 09:30N 40°39' W 074°07'0 0.0
2017-Oct-10 09:00N 40°39' W 074°07'0 0.0
2017-Oct-10 08:30N 40°39' W 074°07'0 0.0
2017-Oct-10 08:00N 40°39' W 074°07'0 0.0
2017-Oct-10 07:30N 40°39' W 074°07'0 0.0
2017-Oct-10 07:00N 40°39' W 074°07'0 0.0
2017-Oct-10 06:30N 40°39' W 074°07'0 0.0
2017-Oct-10 06:00N 40°39' W 074°07'0 0.0
2017-Oct-10 05:27N 40°39' W 074°07'0 0.0
2017-Oct-10 05:00N 40°39' W 074°07'0 0.0
2017-Oct-10 04:30N 40°39' W 074°07'0 0.0
2017-Oct-10 03:57N 40°39' W 074°07'0 0.0
2017-Oct-10 03:30N 40°39' W 074°07'0 0.0
2017-Oct-10 03:00N 40°39' W 074°07'0 0.0
2017-Oct-10 02:30N 40°39' W 074°07'0 0.0
2017-Oct-10 01:57N 40°39' W 074°07'0 0.0
2017-Oct-10 01:30N 40°39' W 074°07'0 0.0
2017-Oct-10 01:00N 40°39' W 074°07'0 0.0
2017-Oct-10 00:30N 40°39' W 074°07'0 0.0
2017-Oct-10 00:00N 40°39' W 074°07'0 0.0
2017-Oct-09 23:30N 40°39' W 074°07'0 0.0
2017-Oct-09 22:54N 40°39' W 074°07'0 0.0
2017-Oct-09 22:30N 40°39' W 074°07'0 0.1
2017-Oct-09 22:00N 40°39' W 074°07'1 2.6
2017-Oct-09 21:30N 40°39' W 074°05'0 0.1
2017-Oct-09 20:58N 40°39' W 074°05'0 0.0
2017-Oct-09 20:28N 40°39' W 074°05'0 0.0
2017-Oct-09 19:58N 40°39' W 074°05'0 0.0
2017-Oct-09 19:28N 40°39' W 074°05'0 0.0
2017-Oct-09 18:58N 40°39' W 074°05'0 0.0
2017-Oct-09 18:28N 40°39' W 074°05'0 0.0
2017-Oct-09 17:58N 40°39' W 074°05'0 0.0
2017-Oct-09 17:28N 40°39' W 074°05'0 0.0
2017-Oct-09 16:58N 40°39' W 074°05'0 0.0
2017-Oct-09 16:28N 40°39' W 074°05'0 0.0
2017-Oct-09 15:58N 40°39' W 074°05'0 0.0
2017-Oct-09 15:28N 40°39' W 074°05'0 0.0
2017-Oct-09 14:58N 40°39' W 074°05'0 0.0
2017-Oct-09 14:28N 40°39' W 074°05'0 0.0
2017-Oct-09 13:58N 40°39' W 074°05'0 0.0
2017-Oct-09 13:25N 40°39' W 074°05'0 0.0
2017-Oct-09 12:58N 40°39' W 074°05'0 0.0
2017-Oct-09 12:28N 40°39' W 074°05'0 0.0
2017-Oct-09 11:58N 40°39' W 074°05'0 0.0
2017-Oct-09 11:28N 40°39' W 074°05'0 0.0
2017-Oct-09 10:58N 40°39' W 074°05'0 0.0
2017-Oct-09 10:28N 40°39' W 074°05'0 0.0
2017-Oct-09 09:58N 40°39' W 074°05'0 0.0
2017-Oct-09 09:28N 40°39' W 074°05'0 0.0
2017-Oct-09 08:58N 40°39' W 074°05'0 0.0
2017-Oct-09 08:28N 40°39' W 074°05'0 0.0
2017-Oct-09 07:58N 40°39' W 074°05'0 0.0
2017-Oct-09 07:28N 40°39' W 074°05'0 0.0
2017-Oct-09 06:58N 40°39' W 074°05'0 0.0
2017-Oct-09 06:28N 40°39' W 074°05'0 0.0
2017-Oct-09 05:58N 40°39' W 074°05'0 0.0
2017-Oct-09 05:28N 40°39' W 074°05'0 0.0
2017-Oct-09 04:58N 40°39' W 074°05'0 0.0
2017-Oct-09 04:28N 40°39' W 074°05'0 0.0
2017-Oct-09 03:58N 40°39' W 074°05'0 0.0
2017-Oct-09 03:25N 40°39' W 074°05'0 0.0
2017-Oct-09 02:58N 40°39' W 074°05'0 0.0
2017-Oct-09 02:28N 40°39' W 074°05'0 0.0
2017-Oct-09 01:58N 40°39' W 074°05'0 0.0
2017-Oct-09 01:28N 40°39' W 074°05'0 0.0
2017-Oct-09 00:58N 40°39' W 074°05'0 0.0
2017-Oct-09 00:28N 40°39' W 074°05'0 0.0
2017-Oct-08 23:58N 40°39' W 074°05'0 0.0
2017-Oct-08 23:28N 40°39' W 074°05'0 0.0
2017-Oct-08 22:58N 40°39' W 074°05'0 0.0
2017-Oct-08 22:28N 40°39' W 074°05'0 0.0
2017-Oct-08 21:58N 40°39' W 074°05'0 0.0
2017-Oct-08 21:28N 40°39' W 074°05'0 0.0
2017-Oct-08 20:58N 40°39' W 074°05'0 0.0
2017-Oct-08 20:28N 40°39' W 074°05'0 0.0
2017-Oct-08 19:58N 40°39' W 074°05'0 0.0
2017-Oct-08 19:25N 40°39' W 074°05'0 0.0
2017-Oct-08 18:58N 40°39' W 074°05'0 0.0
2017-Oct-08 18:28N 40°39' W 074°05'0 0.0
2017-Oct-08 17:58N 40°39' W 074°05'0 0.0
2017-Oct-08 17:25N 40°39' W 074°05'0 0.0
2017-Oct-08 16:58N 40°39' W 074°05'0 0.0
2017-Oct-08 16:22N 40°39' W 074°05'0 0.0
2017-Oct-08 15:46N 40°39' W 074°05'0 0.0
2017-Oct-08 15:28N 40°39' W 074°05'0 0.0
2017-Oct-08 14:58N 40°39' W 074°05'0 0.0
2017-Oct-08 14:28N 40°39' W 074°05'0 0.0
2017-Oct-08 13:58N 40°39' W 074°05'0 0.0
2017-Oct-08 13:28N 40°39' W 074°05'0 0.0
2017-Oct-08 12:58N 40°39' W 074°05'0 0.0
2017-Oct-08 12:28N 40°39' W 074°05'0 0.0
2017-Oct-08 11:58N 40°39' W 074°05'0 0.0
2017-Oct-08 11:19N 40°39' W 074°05'0 0.0
2017-Oct-08 10:58N 40°39' W 074°05'0 0.0
2017-Oct-08 10:28N 40°39' W 074°05'0 0.0
2017-Oct-08 09:58N 40°39' W 074°05'0 0.0
2017-Oct-08 09:28N 40°39' W 074°05'0 0.0
2017-Oct-08 08:58N 40°39' W 074°05'0 0.0
2017-Oct-08 08:25N 40°39' W 074°05'0 0.0
2017-Oct-08 07:58N 40°39' W 074°05'0 0.0
2017-Oct-08 07:28N 40°39' W 074°05'0 0.0
2017-Oct-08 06:58N 40°39' W 074°05'0 0.0
2017-Oct-08 06:28N 40°39' W 074°05'0 0.0
2017-Oct-08 05:58N 40°39' W 074°05'0 0.0
2017-Oct-08 05:28N 40°39' W 074°05'0 0.0
2017-Oct-08 04:58N 40°39' W 074°05'0 0.0
2017-Oct-08 04:25N 40°39' W 074°05'0 0.0
2017-Oct-08 03:58N 40°39' W 074°05'0 0.0
2017-Oct-08 03:28N 40°39' W 074°05'0 0.0
2017-Oct-08 03:00N 40°39' W 074°05'0 0.0
2017-Oct-08 02:30N 40°39' W 074°05'0 0.0
2017-Oct-08 02:01N 40°39' W 074°05'0 0.0
2017-Oct-08 01:30N 40°39' W 074°05'2 3.1
2017-Oct-08 01:00N 40°39' W 074°03'0 0.4
2017-Oct-08 00:30N 40°39' W 074°03'0 0.1
2017-Oct-08 00:00N 40°39' W 074°03'0 0.0
2017-Oct-07 23:30N 40°39' W 074°03'0 0.0
2017-Oct-07 23:00N 40°39' W 074°03'0 0.1
2017-Oct-07 22:30N 40°39' W 074°03'0 0.3
2017-Oct-07 22:00N 40°39' W 074°03'0 0.0
2017-Oct-07 21:30N 40°39' W 074°03'0 0.1
2017-Oct-07 20:57N 40°39' W 074°03'0 0.1
2017-Oct-07 20:30N 40°39' W 074°03'0 0.0
2017-Oct-07 19:57N 40°39' W 074°03'0 0.0
2017-Oct-07 19:30N 40°39' W 074°03'0 0.0
2017-Oct-07 19:00N 40°39' W 074°03'0 0.0
2017-Oct-07 18:30N 40°39' W 074°03'0 0.0
2017-Oct-07 18:00N 40°39' W 074°03'0 0.0
2017-Oct-07 17:30N 40°39' W 074°03'0 0.8
2017-Oct-07 17:00N 40°39' W 074°03'4 8.5
2017-Oct-07 16:30N 40°39' W 074°09'3 5.1
2017-Oct-07 16:00N 40°38' W 074°12'0 0.1
2017-Oct-07 15:30N 40°38' W 074°12'0 0.0
2017-Oct-07 14:58N 40°38' W 074°12'0 0.0
2017-Oct-07 14:28N 40°38' W 074°12'0 0.0
2017-Oct-07 13:58N 40°38' W 074°12'  
Track history (hours):
 
Tides and Currents Weather Stations Pressure Air Temp Water Temp Dewpoint Dewpoint Depression Visibility Wind Speed Wind Dir Waves Ship Positions

Barney Turecamo

Owner: Moran Towing Corporation, New Canaan, CT. More information available from US FCC via Universal Licensing System and Coast Guard Vessel Documentation Center.

Last reported at 2017-Oct-17 13:29 UTC. Time now 2017-Oct-17 13:54 UTC.
Position N 40°39' W 074°07'.

Length 156 m; draft 7 m.

Type: . MMSI: 367061610.

Date/timePositionNaut miles runAvg speedWind from/ knotsBaromVisibWave heightAir tempDewpointWater temp
2017-Oct-17 13:29N 40°39' W 074°07'0 0.0
2017-Oct-17 12:59N 40°39' W 074°07'0 0.0
2017-Oct-17 12:29N 40°39' W 074°07'0 0.0
2017-Oct-17 11:59N 40°39' W 074°07'0 0.0
2017-Oct-17 11:29N 40°39' W 074°07'0 0.0
2017-Oct-17 10:59N 40°39' W 074°07'0 0.0
2017-Oct-17 10:26N 40°39' W 074°07'0 0.0
2017-Oct-17 09:59N 40°39' W 074°07'0 0.0
2017-Oct-17 09:29N 40°39' W 074°07'0 0.0
2017-Oct-17 08:59N 40°39' W 074°07'0 0.0
2017-Oct-17 08:29N 40°39' W 074°07'0 0.0
2017-Oct-17 07:56N 40°39' W 074°07'0 0.0
2017-Oct-17 07:29N 40°39' W 074°07'0 0.0
2017-Oct-17 06:59N 40°39' W 074°07'0 0.0
2017-Oct-17 06:30N 40°39' W 074°07'0 0.2
2017-Oct-17 06:01N 40°39' W 074°07'0 0.1
2017-Oct-17 05:30N 40°39' W 074°07'0 0.0
2017-Oct-17 05:00N 40°39' W 074°07'1 2.5
2017-Oct-17 04:30N 40°39' W 074°05'0 0.2
2017-Oct-17 04:00N 40°39' W 074°05'0 0.0
2017-Oct-17 03:30N 40°39' W 074°05'0 0.0
2017-Oct-17 02:59N 40°39' W 074°05'0 0.0
2017-Oct-17 02:26N 40°39' W 074°05'0 0.0
2017-Oct-17 01:59N 40°39' W 074°05'0 0.0
2017-Oct-17 01:29N 40°39' W 074°05'0 0.0
2017-Oct-17 00:59N 40°39' W 074°05'0 0.0
2017-Oct-17 00:29N 40°39' W 074°05'0 0.0
2017-Oct-16 23:59N 40°39' W 074°05'0 0.0
2017-Oct-16 23:29N 40°39' W 074°05'0 0.0
2017-Oct-16 22:59N 40°39' W 074°05'0 0.0
2017-Oct-16 22:29N 40°39' W 074°05'0 0.0
2017-Oct-16 21:59N 40°39' W 074°05'0 0.0
2017-Oct-16 21:26N 40°39' W 074°05'0 0.0
2017-Oct-16 20:59N 40°39' W 074°05'0 0.0
2017-Oct-16 20:31N 40°39' W 074°05'2 4.3
2017-Oct-16 20:00N 40°38' W 074°08'0 0.0
2017-Oct-16 19:28N 40°38' W 074°08'0 0.0
2017-Oct-16 18:58N 40°38' W 074°08'0 0.0
2017-Oct-16 18:28N 40°38' W 074°08'0 0.0
2017-Oct-16 17:58N 40°38' W 074°08'0 0.0
2017-Oct-16 17:19N 40°38' W 074°08'0 0.0
2017-Oct-16 16:58N 40°38' W 074°08'0 0.0
2017-Oct-16 16:28N 40°38' W 074°08'2 4.7
2017-Oct-16 16:00N 40°39' W 074°05'0 0.0
2017-Oct-16 15:27N 40°39' W 074°05'0 0.0
2017-Oct-16 15:00N 40°39' W 074°05'0 0.0
2017-Oct-16 14:00N 40°39' W 074°05'0 0.0
2017-Oct-16 13:30N 40°39' W 074°05'0 0.0
2017-Oct-16 13:00N 40°39' W 074°05'0 0.0
2017-Oct-16 12:30N 40°39' W 074°05'0 0.0
2017-Oct-16 12:00N 40°39' W 074°05'0 0.0
2017-Oct-16 11:30N 40°39' W 074°05'0 0.0
2017-Oct-16 11:00N 40°39' W 074°05'0 0.0
2017-Oct-16 10:27N 40°39' W 074°05'0 0.0
2017-Oct-16 10:00N 40°39' W 074°05'0 0.0
2017-Oct-16 09:30N 40°39' W 074°05'0 0.0
2017-Oct-16 09:00N 40°39' W 074°05'0 0.0
2017-Oct-16 08:30N 40°39' W 074°05'0 0.0
2017-Oct-16 08:00N 40°39' W 074°05'0 0.0
2017-Oct-16 07:30N 40°39' W 074°05'0 0.0
2017-Oct-16 07:00N 40°39' W 074°05'0 0.0
2017-Oct-16 06:30N 40°39' W 074°05'0 0.0
2017-Oct-16 06:00N 40°39' W 074°05'0 0.0
2017-Oct-16 05:30N 40°39' W 074°05'0 0.0
2017-Oct-16 05:00N 40°39' W 074°05'0 0.0
2017-Oct-16 04:30N 40°39' W 074°05'0 0.0
2017-Oct-16 04:00N 40°39' W 074°05'2 3.3
2017-Oct-16 03:31N 40°39' W 074°03'0 0.1
2017-Oct-16 02:59N 40°39' W 074°03'0 0.0
2017-Oct-16 02:30N 40°39' W 074°03'1 2.4
2017-Oct-16 02:00N 40°39' W 074°05'5 9.8
2017-Oct-16 01:30N 40°39' W 074°11'1 2.4
2017-Oct-16 00:59N 40°38' W 074°12'0 0.0
2017-Oct-16 00:29N 40°38' W 074°12'0 0.0
2017-Oct-15 23:59N 40°38' W 074°12'0 0.0
2017-Oct-15 23:26N 40°38' W 074°12'0 0.0
2017-Oct-15 22:59N 40°38' W 074°12'0 0.0
2017-Oct-15 22:26N 40°38' W 074°12'0 0.0
2017-Oct-15 21:59N 40°38' W 074°12'0 0.0
2017-Oct-15 21:26N 40°38' W 074°12'0 0.0
2017-Oct-15 20:59N 40°38' W 074°12'0 0.0
2017-Oct-15 20:29N 40°38' W 074°12'0 0.0
2017-Oct-15 19:56N 40°38' W 074°12'0 0.0
2017-Oct-15 19:29N 40°38' W 074°12'0 0.0
2017-Oct-15 18:56N 40°38' W 074°12'0 0.0
2017-Oct-15 18:29N 40°38' W 074°12'0 0.0
2017-Oct-15 17:59N 40°38' W 074°12'0 0.0
2017-Oct-15 17:29N 40°38' W 074°12'0 0.0
2017-Oct-15 16:56N 40°38' W 074°12'0 0.0
2017-Oct-15 16:29N 40°38' W 074°12'0 0.0
2017-Oct-15 15:56N 40°38' W 074°12'0 0.0
2017-Oct-15 15:26N 40°38' W 074°12'0 0.0
2017-Oct-15 14:59N 40°38' W 074°12'0 0.0
2017-Oct-15 13:59N 40°38' W 074°12'0 0.0
2017-Oct-15 13:20N 40°38' W 074°12'0 0.0
2017-Oct-15 12:53N 40°38' W 074°12'0 0.0
2017-Oct-15 12:29N 40°38' W 074°12'0 0.0
2017-Oct-15 11:59N 40°38' W 074°12'0 0.0
2017-Oct-15 11:29N 40°38' W 074°12'0 0.0
2017-Oct-15 10:59N 40°38' W 074°12'0 0.0
2017-Oct-15 10:29N 40°38' W 074°12'0 0.0
2017-Oct-15 09:56N 40°38' W 074°12'0 0.0
2017-Oct-15 09:26N 40°38' W 074°12'0 0.0
2017-Oct-15 08:56N 40°38' W 074°12'0 0.0
2017-Oct-15 08:29N 40°38' W 074°12'0 0.0
2017-Oct-15 07:59N 40°38' W 074°12'0 0.0
2017-Oct-15 07:29N 40°38' W 074°12'0 0.0
2017-Oct-15 06:59N 40°38' W 074°12'0 0.0
2017-Oct-15 06:29N 40°38' W 074°12'0 0.0
2017-Oct-15 05:59N 40°38' W 074°12'0 0.0
2017-Oct-15 05:29N 40°38' W 074°12'0 0.0
2017-Oct-15 04:56N 40°38' W 074°12'0 0.0
2017-Oct-15 04:29N 40°38' W 074°12'0 0.0
2017-Oct-15 03:59N 40°38' W 074°12'0 0.0
2017-Oct-15 03:29N 40°38' W 074°12'0 0.0
2017-Oct-15 02:56N 40°38' W 074°12'0 0.0
2017-Oct-15 02:26N 40°38' W 074°12'0 0.0
2017-Oct-15 01:50N 40°38' W 074°12'0 0.0
2017-Oct-15 01:29N 40°38' W 074°12'0 0.0
2017-Oct-15 00:59N 40°38' W 074°12'0 0.0
2017-Oct-15 00:29N 40°38' W 074°12'0 0.0
2017-Oct-14 23:59N 40°38' W 074°12'0 0.0
2017-Oct-14 23:26N 40°38' W 074°12'0 0.0
2017-Oct-14 22:59N 40°38' W 074°12'0 0.0
2017-Oct-14 22:29N 40°38' W 074°12'0 0.0
2017-Oct-14 21:56N 40°38' W 074°12'0 0.0
2017-Oct-14 21:29N 40°38' W 074°12'0 0.0
2017-Oct-14 20:53N 40°38' W 074°12'0 0.0
2017-Oct-14 20:29N 40°38' W 074°12'0 0.0
2017-Oct-14 19:59N 40°38' W 074°12'0 0.0
2017-Oct-14 19:29N 40°38' W 074°12'0 0.0
2017-Oct-14 18:59N 40°38' W 074°12'0 0.0
2017-Oct-14 18:29N 40°38' W 074°12'0 0.0
2017-Oct-14 17:59N 40°38' W 074°12'0 0.0
2017-Oct-14 17:29N 40°38' W 074°12'0 0.0
2017-Oct-14 16:56N 40°38' W 074°12'0 0.0
2017-Oct-14 16:29N 40°38' W 074°12'0 0.0
2017-Oct-14 15:59N 40°38' W 074°12'0 0.0
2017-Oct-14 15:29N 40°38' W 074°12'0 0.0
2017-Oct-14 14:59N 40°38' W 074°12'0 0.0
2017-Oct-14 14:29N 40°38' W 074°12'0 0.0
2017-Oct-14 13:59N 40°38' W 074°12'0 0.0
2017-Oct-14 13:29N 40°38' W 074°12'0 0.0
2017-Oct-14 12:56N 40°38' W 074°12'1 1.5
2017-Oct-14 12:29N 40°38' W 074°12'4 7.9
2017-Oct-14 12:00N 40°39' W 074°07'3 5.2
2017-Oct-14 11:28N 40°39' W 074°03'0 0.0
2017-Oct-14 10:58N 40°39' W 074°03'0 0.3
2017-Oct-14 10:28N 40°39' W 074°03'0 0.1
2017-Oct-14 09:58N 40°39' W 074°03'0 0.0
2017-Oct-14 09:28N 40°39' W 074°03'0 0.0
2017-Oct-14 08:58N 40°39' W 074°03'0 0.0
2017-Oct-14 08:28N 40°39' W 074°03'0 0.0
2017-Oct-14 07:58N 40°39' W 074°03'0 0.0
2017-Oct-14 07:28N 40°39' W 074°03'0 0.0
2017-Oct-14 06:58N 40°39' W 074°03'0 0.1
2017-Oct-14 06:28N 40°39' W 074°03'0 0.2
2017-Oct-14 05:58N 40°39' W 074°03'0 0.2
2017-Oct-14 05:28N 40°39' W 074°03'0 0.3
2017-Oct-14 04:55N 40°39' W 074°03'0 0.9
2017-Oct-14 04:30N 40°40' W 074°03'3 6.1
2017-Oct-14 04:00N 40°42' W 074°00'4 7.1
2017-Oct-14 03:30N 40°45' W 073°58'4 7.1
2017-Oct-14 02:59N 40°48' W 073°55'2 4.6
2017-Oct-14 02:29N 40°48' W 073°52'4 7.5
2017-Oct-14 01:59N 40°49' W 073°47'53 2.4
2017-Oct-13 04:32N 41°00' W 072°39'0 0.0
2017-Oct-13 04:12N 41°00' W 072°39'0 0.1
2017-Oct-13 03:57N 40°60' W 072°39'62 1.2
2017-Oct-11 00:00N 40°43' W 073°58'4 7.9
2017-Oct-10 23:30N 40°41' W 074°02'4 7.3
2017-Oct-10 23:00N 40°39' W 074°06'0 0.7
2017-Oct-10 22:27N 40°39' W 074°07'0 0.0
2017-Oct-10 22:00N 40°39' W 074°07'0 0.0
2017-Oct-10 21:30N 40°39' W 074°07'0 0.0
2017-Oct-10 21:00N 40°39' W 074°07'0 0.0
2017-Oct-10 20:27N 40°39' W 074°07'0 0.0
2017-Oct-10 20:00N 40°39' W 074°07'0 0.0
2017-Oct-10 19:30N 40°39' W 074°07'0 0.0
2017-Oct-10 19:00N 40°39' W 074°07'0 0.0
2017-Oct-10 18:30N 40°39' W 074°07'0 0.0
2017-Oct-10 18:00N 40°39' W 074°07'0 0.0
2017-Oct-10 17:30N 40°39' W 074°07'0 0.0
2017-Oct-10 17:00N 40°39' W 074°07'0 0.0
2017-Oct-10 16:30N 40°39' W 074°07'0 0.0
2017-Oct-10 16:00N 40°39' W 074°07'0 0.0
2017-Oct-10 15:30N 40°39' W 074°07'0 0.0
2017-Oct-10 14:57N 40°39' W 074°07'0 0.0
2017-Oct-10 14:00N 40°39' W 074°07'0 0.0
2017-Oct-10 13:30N 40°39' W 074°07'0 0.0
2017-Oct-10 13:00N 40°39' W 074°07'0 0.0
2017-Oct-10 12:30N 40°39' W 074°07'0 0.0
2017-Oct-10 12:00N 40°39' W 074°07'0 0.0
2017-Oct-10 11:30N 40°39' W 074°07'0 0.0
2017-Oct-10 10:57N 40°39' W 074°07'0 0.0
2017-Oct-10 10:30N 40°39' W 074°07'0 0.0
2017-Oct-10 09:57N 40°39' W 074°07'0 0.0
2017-Oct-10 09:30N 40°39' W 074°07'0 0.0
2017-Oct-10 09:00N 40°39' W 074°07'0 0.0
2017-Oct-10 08:30N 40°39' W 074°07'0 0.0
2017-Oct-10 08:00N 40°39' W 074°07'0 0.0
2017-Oct-10 07:30N 40°39' W 074°07'0 0.0
2017-Oct-10 07:00N 40°39' W 074°07'0 0.0
2017-Oct-10 06:30N 40°39' W 074°07'0 0.0
2017-Oct-10 06:00N 40°39' W 074°07'0 0.0
2017-Oct-10 05:27N 40°39' W 074°07'0 0.0
2017-Oct-10 05:00N 40°39' W 074°07'0 0.0
2017-Oct-10 04:30N 40°39' W 074°07'0 0.0
2017-Oct-10 03:57N 40°39' W 074°07'0 0.0
2017-Oct-10 03:30N 40°39' W 074°07'0 0.0
2017-Oct-10 03:00N 40°39' W 074°07'0 0.0
2017-Oct-10 02:30N 40°39' W 074°07'0 0.0
2017-Oct-10 01:57N 40°39' W 074°07'0 0.0
2017-Oct-10 01:30N 40°39' W 074°07'0 0.0
2017-Oct-10 01:00N 40°39' W 074°07'0 0.0
2017-Oct-10 00:30N 40°39' W 074°07'0 0.0
2017-Oct-10 00:00N 40°39' W 074°07'0 0.0
2017-Oct-09 23:30N 40°39' W 074°07'0 0.0
2017-Oct-09 22:54N 40°39' W 074°07'0 0.0
2017-Oct-09 22:30N 40°39' W 074°07'0 0.1
2017-Oct-09 22:00N 40°39' W 074°07'1 2.6
2017-Oct-09 21:30N 40°39' W 074°05'0 0.1
2017-Oct-09 20:58N 40°39' W 074°05'0 0.0
2017-Oct-09 20:28N 40°39' W 074°05'0 0.0
2017-Oct-09 19:58N 40°39' W 074°05'0 0.0
2017-Oct-09 19:28N 40°39' W 074°05'0 0.0
2017-Oct-09 18:58N 40°39' W 074°05'0 0.0
2017-Oct-09 18:28N 40°39' W 074°05'0 0.0
2017-Oct-09 17:58N 40°39' W 074°05'0 0.0
2017-Oct-09 17:28N 40°39' W 074°05'0 0.0
2017-Oct-09 16:58N 40°39' W 074°05'0 0.0
2017-Oct-09 16:28N 40°39' W 074°05'0 0.0
2017-Oct-09 15:58N 40°39' W 074°05'0 0.0
2017-Oct-09 15:28N 40°39' W 074°05'0 0.0
2017-Oct-09 14:58N 40°39' W 074°05'0 0.0
2017-Oct-09 14:28N 40°39' W 074°05'0 0.0
2017-Oct-09 13:58N 40°39' W 074°05'0 0.0
2017-Oct-09 13:25N 40°39' W 074°05'0 0.0
2017-Oct-09 12:58N 40°39' W 074°05'0 0.0
2017-Oct-09 12:28N 40°39' W 074°05'0 0.0
2017-Oct-09 11:58N 40°39' W 074°05'0 0.0
2017-Oct-09 11:28N 40°39' W 074°05'0 0.0
2017-Oct-09 10:58N 40°39' W 074°05'0 0.0
2017-Oct-09 10:28N 40°39' W 074°05'0 0.0
2017-Oct-09 09:58N 40°39' W 074°05'0 0.0
2017-Oct-09 09:28N 40°39' W 074°05'0 0.0
2017-Oct-09 08:58N 40°39' W 074°05'0 0.0
2017-Oct-09 08:28N 40°39' W 074°05'0 0.0
2017-Oct-09 07:58N 40°39' W 074°05'0 0.0
2017-Oct-09 07:28N 40°39' W 074°05'0 0.0
2017-Oct-09 06:58N 40°39' W 074°05'0 0.0
2017-Oct-09 06:28N 40°39' W 074°05'0 0.0
2017-Oct-09 05:58N 40°39' W 074°05'0 0.0
2017-Oct-09 05:28N 40°39' W 074°05'0 0.0
2017-Oct-09 04:58N 40°39' W 074°05'0 0.0
2017-Oct-09 04:28N 40°39' W 074°05'0 0.0
2017-Oct-09 03:58N 40°39' W 074°05'0 0.0
2017-Oct-09 03:25N 40°39' W 074°05'0 0.0
2017-Oct-09 02:58N 40°39' W 074°05'0 0.0
2017-Oct-09 02:28N 40°39' W 074°05'0 0.0
2017-Oct-09 01:58N 40°39' W 074°05'0 0.0
2017-Oct-09 01:28N 40°39' W 074°05'0 0.0
2017-Oct-09 00:58N 40°39' W 074°05'0 0.0
2017-Oct-09 00:28N 40°39' W 074°05'0 0.0
2017-Oct-08 23:58N 40°39' W 074°05'0 0.0
2017-Oct-08 23:28N 40°39' W 074°05'0 0.0
2017-Oct-08 22:58N 40°39' W 074°05'0 0.0
2017-Oct-08 22:28N 40°39' W 074°05'0 0.0
2017-Oct-08 21:58N 40°39' W 074°05'0 0.0
2017-Oct-08 21:28N 40°39' W 074°05'0 0.0
2017-Oct-08 20:58N 40°39' W 074°05'0 0.0
2017-Oct-08 20:28N 40°39' W 074°05'0 0.0
2017-Oct-08 19:58N 40°39' W 074°05'0 0.0
2017-Oct-08 19:25N 40°39' W 074°05'0 0.0
2017-Oct-08 18:58N 40°39' W 074°05'0 0.0
2017-Oct-08 18:28N 40°39' W 074°05'0 0.0
2017-Oct-08 17:58N 40°39' W 074°05'0 0.0
2017-Oct-08 17:25N 40°39' W 074°05'0 0.0
2017-Oct-08 16:58N 40°39' W 074°05'0 0.0
2017-Oct-08 16:22N 40°39' W 074°05'0 0.0
2017-Oct-08 15:46N 40°39' W 074°05'0 0.0
2017-Oct-08 15:28N 40°39' W 074°05'0 0.0
2017-Oct-08 14:58N 40°39' W 074°05'0 0.0
2017-Oct-08 14:28N 40°39' W 074°05'0 0.0
2017-Oct-08 13:58N 40°39' W 074°05'0 0.0
2017-Oct-08 13:28N 40°39' W 074°05'0 0.0
2017-Oct-08 12:58N 40°39' W 074°05'0 0.0
2017-Oct-08 12:28N 40°39' W 074°05'0 0.0
2017-Oct-08 11:58N 40°39' W 074°05'0 0.0
2017-Oct-08 11:19N 40°39' W 074°05'0 0.0
2017-Oct-08 10:58N 40°39' W 074°05'0 0.0
2017-Oct-08 10:28N 40°39' W 074°05'0 0.0
2017-Oct-08 09:58N 40°39' W 074°05'0 0.0
2017-Oct-08 09:28N 40°39' W 074°05'0 0.0
2017-Oct-08 08:58N 40°39' W 074°05'0 0.0
2017-Oct-08 08:25N 40°39' W 074°05'0 0.0
2017-Oct-08 07:58N 40°39' W 074°05'0 0.0
2017-Oct-08 07:28N 40°39' W 074°05'0 0.0
2017-Oct-08 06:58N 40°39' W 074°05'0 0.0
2017-Oct-08 06:28N 40°39' W 074°05'0 0.0
2017-Oct-08 05:58N 40°39' W 074°05'0 0.0
2017-Oct-08 05:28N 40°39' W 074°05'0 0.0
2017-Oct-08 04:58N 40°39' W 074°05'0 0.0
2017-Oct-08 04:25N 40°39' W 074°05'0 0.0
2017-Oct-08 03:58N 40°39' W 074°05'0 0.0
2017-Oct-08 03:28N 40°39' W 074°05'0 0.0
2017-Oct-08 03:00N 40°39' W 074°05'0 0.0
2017-Oct-08 02:30N 40°39' W 074°05'0 0.0
2017-Oct-08 02:01N 40°39' W 074°05'0 0.0
2017-Oct-08 01:30N 40°39' W 074°05'2 3.1
2017-Oct-08 01:00N 40°39' W 074°03'0 0.4
2017-Oct-08 00:30N 40°39' W 074°03'0 0.1
2017-Oct-08 00:00N 40°39' W 074°03'0 0.0
2017-Oct-07 23:30N 40°39' W 074°03'0 0.0
2017-Oct-07 23:00N 40°39' W 074°03'0 0.1
2017-Oct-07 22:30N 40°39' W 074°03'0 0.3
2017-Oct-07 22:00N 40°39' W 074°03'0 0.0
2017-Oct-07 21:30N 40°39' W 074°03'0 0.1
2017-Oct-07 20:57N 40°39' W 074°03'0 0.1
2017-Oct-07 20:30N 40°39' W 074°03'0 0.0
2017-Oct-07 19:57N 40°39' W 074°03'0 0.0
2017-Oct-07 19:30N 40°39' W 074°03'0 0.0
2017-Oct-07 19:00N 40°39' W 074°03'0 0.0
2017-Oct-07 18:30N 40°39' W 074°03'0 0.0
2017-Oct-07 18:00N 40°39' W 074°03'0 0.0
2017-Oct-07 17:30N 40°39' W 074°03'0 0.8
2017-Oct-07 17:00N 40°39' W 074°03'4 8.5
2017-Oct-07 16:30N 40°39' W 074°09'3 5.1
2017-Oct-07 16:00N 40°38' W 074°12'0 0.1
2017-Oct-07 15:30N 40°38' W 074°12'0 0.0
2017-Oct-07 14:58N 40°38' W 074°12'0 0.0
2017-Oct-07 14:28N 40°38' W 074°12'0 0.0
2017-Oct-07 13:58N 40°38' W 074°12'  

Dump ship's entire track history